Terminal Aerodrome Forecast
Issued by NWS

Home | Current Version | Previous Version | Text Only | Print | Product List | Glossary On
Versions: 1 2 3 4 5 6 7 8 9 10 11 12
000
FTUS46 KPDT 181100
TAFALW
TAF
KALW 181120Z 1812/1912 18007KT P6SM FEW150 SCT250
     FM181500 20006KT P6SM SKC
     FM182100 31007KT P6SM SKC
     FM190300 12006KT P6SM SKC=

USA.gov is the U.S. government's official web portal to all federal, state and local government web resources and services.